Meteo Giornale » Osservazioni meteo Francia » Cannes

ore: 03:30 - Osservazioni Meteo Cannes
Lat. 43° 33' N Lon. 6° 57' E Alt. 3 metri s.l.m.

sereno Europe/Paris

19 °C

Sereno

Temp. 24 Ore

17 °C

27 °C

Nord

5.5 Km/h

Dew point 17 °C

Umidità 88 %

Visibilità  10 Km

Il sole sorge alle ore 07:14

Il sole tramonta alle ore 19:36

Data e Ora Cielo e Fenomeni T °C DP °C Um. % Pres. hPa Vis. km Vento km/h
Oggi h: 03:30 sereno Sereno 19 17 88 1011 10 N 5.5
Oggi h: 03:00 sereno Sereno 19 17 88 1011 10 N 0
Oggi h: 02:30 sereno Sereno 19 17 88 1011 10 N 3.7
Oggi h: 02:00 sereno Sereno 19 17 88 1011 10 N 5.5
Oggi h: 01:30 sereno Sereno 19 17 88 1011 10 N 5.5
Oggi h: 01:00 sereno Sereno 19 17 88 1011 10 N/NE 7.4
Oggi h: 00:30 sereno Sereno 19 17 88 1012 10 N 5.5
Oggi h: 00:00 sereno Sereno 19 17 88 1011 10 N 3.7
Ieri h: 23:30 sereno Sereno 19 17 88 1011 10 N 5.5
Ieri h: 23:00 sereno Sereno 19 17 88 1012 10 N 3.7
Ieri h: 22:30 sereno Sereno 20 18 88 1012 10 N 7.4
Ieri h: 22:00 sereno Sereno 21 18 82 1012 10 N 5.5
Ieri h: 21:30 sereno Sereno 21 18 82 1011 10 N 5.5
Ieri h: 21:00 sereno Sereno 21 19 88 1011 10 N 5.5
Ieri h: 20:00 sereno Sereno 23 19 78 1011 10 N 5.5
Ieri h: 19:30 sereno Sereno 24 19 73 1011 10 N 3.7
Ieri h: 19:00 sereno Sereno 25 19 69 1011 10 N 3.7
Ieri h: 18:30 sereno Sereno 25 19 69 1011 10 SE 7.4
Ieri h: 18:00 sereno Sereno 26 18 61 1011 10 S 11.1
Ieri h: 17:30 sereno Sereno 26 19 65 1011 10 S 16.7
Ieri h: 17:00 sereno Sereno 26 19 65 1011 10 S/SE 13
Ieri h: 16:30 sereno Sereno 27 20 65 1011 10 S/SE 13
Ieri h: 16:00 sereno Sereno 27 20 65 1011 10 S 13
Ieri h: 15:30 sereno Sereno 26 20 69 1012 10 S 16.7
Ieri h: 14:30 sereno Sereno 26 20 69 1012 10 SE 14.8
Ieri h: 13:30 sereno Sereno 25 19 69 1012 10 E/SE 9.3
Ieri h: 12:30 sereno Sereno 25 18 65 1013 10 S/SE 11.1
Ieri h: 11:30 sereno Sereno 24 19 73 1013 10 S/SE 11.1
Ieri h: 11:00 sereno Sereno 24 19 73 1012 10 S/SE 7.4
Ieri h: 10:30 sereno Sereno 25 19 69 1012 10 N 0
Ieri h: 09:30 sereno Sereno 22 18 78 1012 10 N 0
Ieri h: 09:00 sereno Sereno 20 16 77 1012 10 N/NO 7.4
Ieri h: 08:30 sereno Sereno 18 16 88 1012 10 N 7.4
Ieri h: 08:00 sereno Sereno 17 16 93 1012 10 N 5.5
Ieri h: 07:30 sereno Sereno 17 16 93 1012 10 N 5.5
Ieri h: 07:00 sereno Sereno 17 16 93 1012 10 N 5.5
Ieri h: 06:30 poco_nuvoloso Poco Nuvoloso 18 16 88 1011 10 N 7.4
Ieri h: 06:00 sereno Sereno 18 16 88 1012 10 N 5.5
Ieri h: 05:30 nuvoloso Nuvoloso 18 16 88 1012 10 N 5.5
Ieri h: 05:00 molto_nuvoloso Molto Nuvoloso 18 17 93 1012 10 N 5.5